createdAt,value
2024-05-09T00:01:25.706Z,6.00
2024-05-09T00:03:57.758Z,6.45
2024-05-09T00:06:27.222Z,6.00
2024-05-09T00:08:56.566Z,5.35
2024-05-09T00:11:26.104Z,5.45
2024-05-09T00:13:55.530Z,5.60
2024-05-09T00:16:24.899Z,5.25
2024-05-09T00:18:56.972Z,5.15
2024-05-09T00:21:26.372Z,5.30
2024-05-09T00:23:55.764Z,5.55
2024-05-09T00:26:25.219Z,4.93
2024-05-09T00:28:54.680Z,4.72
2024-05-09T00:31:24.035Z,5.07
2024-05-09T00:33:53.525Z,4.70
2024-05-09T00:36:25.521Z,4.38
2024-05-09T00:38:54.856Z,4.70
2024-05-09T00:41:24.331Z,4.63
2024-05-09T00:43:53.776Z,4.25
2024-05-09T00:46:23.669Z,4.55
2024-05-09T00:48:53.201Z,4.47
2024-05-09T00:51:25.290Z,4.10
2024-05-09T00:53:54.682Z,4.40
2024-05-09T00:56:24.815Z,4.50
2024-05-09T00:58:54.611Z,4.32
2024-05-09T01:01:27.709Z,4.38
2024-05-09T01:03:57.595Z,4.35
2024-05-09T01:06:29.659Z,4.10
2024-05-09T01:08:59.068Z,4.50
2024-05-09T01:11:36.092Z,3.95
2024-05-09T01:14:05.558Z,4.30
2024-05-09T01:16:35.225Z,3.92
2024-05-09T01:19:06.743Z,4.43
2024-05-09T01:21:43.054Z,4.40
2024-05-09T01:24:14.976Z,4.63
2024-05-09T01:26:44.318Z,4.32
2024-05-09T01:29:13.762Z,4.43
2024-05-09T01:31:43.303Z,4.75
2024-05-09T01:34:12.847Z,4.20
2024-05-09T01:36:42.198Z,5.45
2024-05-09T01:39:11.644Z,4.40
2024-05-09T01:41:43.647Z,4.82
2024-05-09T01:44:13.027Z,5.07
2024-05-09T01:46:42.432Z,4.93
2024-05-09T01:49:11.861Z,4.53
2024-05-09T01:51:41.315Z,4.57
2024-05-09T01:54:10.780Z,4.13
2024-05-09T01:56:42.745Z,4.78
2024-05-09T01:59:12.755Z,3.88
2024-05-09T02:01:56.252Z,4.80
2024-05-09T02:04:27.294Z,4.82
2024-05-09T02:06:56.729Z,5.03
2024-05-09T02:09:26.070Z,5.05
2024-05-09T02:11:58.273Z,4.85
2024-05-09T02:14:28.094Z,4.78
2024-05-09T02:16:57.604Z,5.10
2024-05-09T02:19:29.614Z,5.53
2024-05-09T02:21:59.026Z,5.07
2024-05-09T02:24:28.459Z,5.13
2024-05-09T02:27:00.582Z,5.10
2024-05-09T02:29:30.092Z,5.28
2024-05-09T02:31:59.611Z,6.03
2024-05-09T02:34:26.448Z,5.40
2024-05-09T02:36:56.253Z,5.03
2024-05-09T02:39:23.179Z,5.20
2024-05-09T02:41:52.526Z,5.82
2024-05-09T02:44:21.975Z,5.65
2024-05-09T02:46:52.189Z,5.53
2024-05-09T02:49:19.119Z,5.43
2024-05-09T02:51:48.553Z,5.20
2024-05-09T02:54:15.451Z,5.65
2024-05-09T02:56:44.767Z,6.15
2024-05-09T02:59:11.733Z,5.55
2024-05-09T03:01:43.783Z,5.78
2024-05-09T03:04:10.912Z,5.13
2024-05-09T03:06:43.429Z,5.45
2024-05-09T03:09:10.401Z,6.45
2024-05-09T03:11:40.581Z,5.55
2024-05-09T03:14:07.503Z,5.70
2024-05-09T03:16:42.829Z,5.70
2024-05-09T03:19:09.867Z,6.22
2024-05-09T03:21:41.432Z,5.57
2024-05-09T03:24:08.340Z,5.57
2024-05-09T03:26:37.754Z,5.47
2024-05-09T03:29:04.968Z,5.60
2024-05-09T03:31:34.357Z,5.93
2024-05-09T03:34:03.970Z,5.78
2024-05-09T03:36:33.538Z,5.32
2024-05-09T03:39:02.880Z,5.95
2024-05-09T03:41:32.542Z,5.55
2024-05-09T03:43:59.407Z,4.80
2024-05-09T03:46:28.792Z,5.72
2024-05-09T03:48:55.686Z,5.07
2024-05-09T03:51:27.674Z,5.03
2024-05-09T03:53:54.490Z,4.85
2024-05-09T03:56:24.089Z,5.03
2024-05-09T03:58:50.969Z,5.30
2024-05-09T04:01:20.413Z,4.93
2024-05-09T04:03:47.405Z,5.10
2024-05-09T04:06:22.956Z,5.10
2024-05-09T04:08:52.390Z,4.95
2024-05-09T04:11:21.961Z,4.70
2024-05-09T04:13:48.803Z,4.75
2024-05-09T04:16:18.295Z,5.18
2024-05-09T04:18:45.163Z,5.50
2024-05-09T04:21:14.626Z,5.13
2024-05-09T04:23:41.514Z,5.18
2024-05-09T04:26:13.941Z,5.18
2024-05-09T04:28:40.774Z,5.05
2024-05-09T04:31:10.184Z,5.30
2024-05-09T04:33:37.145Z,5.32
2024-05-09T04:36:07.082Z,5.32
2024-05-09T04:38:34.004Z,5.20
2024-05-09T04:41:03.940Z,5.10
2024-05-09T04:43:35.171Z,5.35
2024-05-09T04:46:04.589Z,9.18
2024-05-09T04:48:31.552Z,7.53
2024-05-09T04:51:01.060Z,5.90
2024-05-09T04:53:27.962Z,5.95
2024-05-09T04:55:57.625Z,6.05
2024-05-09T04:58:24.500Z,5.95
2024-05-09T05:00:56.483Z,5.32
2024-05-09T05:03:23.538Z,4.80
2024-05-09T05:05:53.155Z,5.63
2024-05-09T05:08:20.196Z,5.70
2024-05-09T05:10:50.380Z,5.32
2024-05-09T05:13:20.248Z,5.47
2024-05-09T05:15:52.488Z,5.45
2024-05-09T05:18:22.516Z,5.28
2024-05-09T05:20:52.613Z,5.72
2024-05-09T05:23:20.866Z,5.65
2024-05-09T05:25:52.179Z,6.03
2024-05-09T05:28:19.715Z,5.50
2024-05-09T05:30:49.493Z,6.13
2024-05-09T05:33:18.719Z,6.10
2024-05-09T05:35:51.429Z,5.55
2024-05-09T05:38:18.356Z,6.25
2024-05-09T05:40:47.933Z,6.20
2024-05-09T05:43:18.641Z,5.53
2024-05-09T05:45:48.355Z,6.32
2024-05-09T05:48:16.900Z,6.47
2024-05-09T05:50:47.336Z,6.75
2024-05-09T05:53:16.856Z,6.05
2024-05-09T05:55:46.282Z,7.05
2024-05-09T05:58:14.352Z,6.90
2024-05-09T06:00:44.446Z,6.65
2024-05-09T06:03:12.718Z,6.80
2024-05-09T06:05:43.319Z,6.75
2024-05-09T06:08:10.570Z,7.22
2024-05-09T06:10:42.855Z,7.05
2024-05-09T06:13:11.057Z,7.07
2024-05-09T06:15:41.112Z,7.47
2024-05-09T06:18:10.207Z,8.38
2024-05-09T06:20:41.868Z,7.40
2024-05-09T06:23:10.493Z,7.75
2024-05-09T06:25:44.211Z,7.32
2024-05-09T06:28:11.323Z,7.65
2024-05-09T06:30:42.635Z,6.97
2024-05-09T06:33:13.346Z,7.40
2024-05-09T06:35:45.232Z,7.38
2024-05-09T06:38:12.549Z,7.80
2024-05-09T06:40:45.065Z,7.07
2024-05-09T06:43:12.520Z,7.80
2024-05-09T06:45:42.059Z,7.35
2024-05-09T06:48:09.810Z,7.43
2024-05-09T06:50:40.363Z,7.32
2024-05-09T06:53:08.186Z,9.30
2024-05-09T06:55:38.547Z,9.18
2024-05-09T06:58:08.930Z,10.38
2024-05-09T07:00:41.023Z,7.93
2024-05-09T07:03:09.955Z,7.43
2024-05-09T07:05:40.299Z,8.57
2024-05-09T07:08:08.185Z,8.07
2024-05-09T07:10:38.516Z,7.13
2024-05-09T07:13:11.242Z,8.50
2024-05-09T07:15:40.826Z,8.50
2024-05-09T07:18:10.170Z,6.82
2024-05-09T07:20:39.721Z,6.75
2024-05-09T07:23:09.209Z,6.60
2024-05-09T07:25:38.591Z,6.30
2024-05-09T07:28:09.664Z,6.30
2024-05-09T07:30:41.662Z,5.70
2024-05-09T07:33:08.742Z,5.90
2024-05-09T07:35:38.519Z,5.72
2024-05-09T07:38:05.428Z,5.63
2024-05-09T07:40:36.900Z,5.32
2024-05-09T07:43:04.475Z,5.30
2024-05-09T07:53:37.167Z,4.95
2024-05-09T07:56:01.219Z,4.85
2024-05-09T07:58:28.746Z,4.38
2024-05-09T08:00:58.228Z,4.97
2024-05-09T08:03:27.778Z,4.50
2024-05-09T08:05:57.404Z,5.50
2024-05-09T08:08:24.146Z,5.05
2024-05-09T08:10:53.774Z,5.47
2024-05-09T08:13:20.742Z,4.32
2024-05-09T08:15:51.712Z,4.07
2024-05-09T08:18:19.854Z,3.60
2024-05-09T08:20:52.384Z,3.90
2024-05-09T08:23:19.176Z,3.80
2024-05-09T08:25:48.540Z,4.43
2024-05-09T08:28:15.679Z,3.50
2024-05-09T08:30:45.633Z,3.60
2024-05-09T08:33:12.613Z,3.65
2024-05-09T08:35:41.991Z,3.80
2024-05-09T08:38:11.512Z,2.92
2024-05-09T08:40:41.149Z,3.22
2024-05-09T08:43:11.317Z,2.78
2024-05-09T08:45:44.007Z,3.00
2024-05-09T08:48:14.336Z,2.47
2024-05-09T08:50:45.823Z,2.45
2024-05-09T08:53:15.768Z,2.10
2024-05-09T08:55:45.554Z,2.28
2024-05-09T08:58:16.225Z,2.17
2024-05-09T09:00:46.736Z,2.50
2024-05-09T09:03:17.441Z,2.60
2024-05-09T09:05:55.590Z,2.20
2024-05-09T09:08:26.160Z,2.38
2024-05-09T09:11:00.135Z,1.77
2024-05-09T09:13:27.628Z,2.30
2024-05-09T09:15:58.613Z,3.00
2024-05-09T09:18:26.981Z,2.15
2024-05-09T09:20:56.837Z,2.20
2024-05-09T09:23:28.279Z,1.80
2024-05-09T09:26:01.157Z,1.92
2024-05-09T09:28:28.156Z,1.67
2024-05-09T09:31:04.101Z,2.78
2024-05-09T09:33:31.734Z,1.95
2024-05-09T09:36:01.800Z,1.50
2024-05-09T09:38:31.674Z,1.63
2024-05-09T09:41:04.049Z,2.10
2024-05-09T09:43:32.905Z,1.53
2024-05-09T09:46:03.476Z,1.75
2024-05-09T09:48:31.466Z,1.50
2024-05-09T09:51:00.959Z,2.33
2024-05-09T09:53:31.903Z,1.50
2024-05-09T09:56:01.627Z,1.52
2024-05-09T09:58:30.002Z,1.67
2024-05-09T10:01:00.579Z,1.50
2024-05-09T10:03:27.936Z,1.83
2024-05-09T10:05:58.210Z,1.55
2024-05-09T10:08:25.352Z,1.50
2024-05-09T10:10:57.977Z,1.50
2024-05-09T10:13:33.131Z,1.60
2024-05-09T10:16:10.274Z,1.60
2024-05-09T10:18:37.745Z,1.27
2024-05-09T10:21:17.879Z,1.52
2024-05-09T10:23:45.678Z,1.60
2024-05-09T10:26:17.707Z,1.60
2024-05-09T10:28:45.929Z,1.40
2024-05-09T10:31:17.559Z,1.50
2024-05-09T10:33:49.558Z,1.40
2024-05-09T10:36:23.255Z,1.70
2024-05-09T10:38:50.923Z,1.88
2024-05-09T10:41:24.737Z,1.70
2024-05-09T10:43:52.279Z,1.48
2024-05-09T10:46:22.093Z,1.67
2024-05-09T10:48:49.541Z,1.50
2024-05-09T10:51:21.427Z,1.48
2024-05-09T10:53:48.580Z,1.65
2024-05-09T10:56:18.852Z,1.70
2024-05-09T10:58:51.500Z,1.17
2024-05-09T11:01:21.160Z,1.85
2024-05-09T11:03:48.750Z,1.50
2024-05-09T11:06:19.395Z,1.60
2024-05-09T11:08:46.944Z,1.48
2024-05-09T11:11:16.486Z,1.45
2024-05-09T11:13:43.304Z,1.50
2024-05-09T11:16:23.285Z,1.25
2024-05-09T11:18:54.561Z,1.50
2024-05-09T11:21:24.387Z,1.42
2024-05-09T11:23:51.601Z,1.50
2024-05-09T11:26:22.631Z,1.38
2024-05-09T11:28:50.535Z,1.25
2024-05-09T11:31:23.108Z,1.30
2024-05-09T11:33:50.345Z,1.20
2024-05-09T11:36:19.926Z,1.17
2024-05-09T11:38:46.759Z,1.40
2024-05-09T11:41:19.764Z,1.70
2024-05-09T11:43:46.542Z,1.10
2024-05-09T11:46:16.168Z,1.40
2024-05-09T11:48:45.756Z,1.73
2024-05-09T11:51:15.189Z,1.70
2024-05-09T11:53:41.943Z,1.70
2024-05-09T11:56:11.965Z,1.75
2024-05-09T11:58:39.563Z,1.70
2024-05-09T12:01:09.041Z,1.50
2024-05-09T12:03:37.846Z,1.58
2024-05-09T12:06:10.121Z,1.70
2024-05-09T12:08:36.982Z,1.75
2024-05-09T12:11:06.762Z,1.10
2024-05-09T12:13:33.628Z,1.55
2024-05-09T12:16:03.473Z,1.20
2024-05-09T12:18:30.414Z,1.55
2024-05-09T12:20:59.818Z,1.52
2024-05-09T12:23:29.208Z,1.40
2024-05-09T12:25:58.569Z,1.10
2024-05-09T12:28:26.481Z,1.27
2024-05-09T12:30:55.962Z,1.60
2024-05-09T12:33:22.888Z,1.30
2024-05-09T12:35:52.230Z,1.35
2024-05-09T12:38:19.015Z,1.30
2024-05-09T12:40:51.224Z,1.20
2024-05-09T12:43:18.175Z,1.50
2024-05-09T12:45:47.604Z,1.55
2024-05-09T12:48:14.654Z,1.10
2024-05-09T12:50:44.243Z,1.35
2024-05-09T12:53:11.170Z,1.20
2024-05-09T12:55:48.554Z,1.50
2024-05-09T12:58:25.918Z,1.27
2024-05-09T13:00:55.534Z,1.20
2024-05-09T13:03:22.588Z,1.20
2024-05-09T13:05:52.579Z,1.17
2024-05-09T13:08:20.412Z,1.13
2024-05-09T13:10:50.191Z,1.13
2024-05-09T13:13:17.284Z,1.50
2024-05-09T13:15:49.487Z,1.40
2024-05-09T13:18:16.333Z,1.02
2024-05-09T13:20:46.601Z,1.52
2024-05-09T13:23:13.445Z,1.20
2024-05-09T13:25:43.067Z,1.10
2024-05-09T13:28:10.082Z,1.70
2024-05-09T13:30:41.851Z,1.40
2024-05-09T13:33:14.360Z,1.25
2024-05-09T13:35:48.719Z,1.20
2024-05-09T13:38:18.512Z,1.40
2024-05-09T13:40:48.539Z,1.30
2024-05-09T13:43:15.868Z,1.52
2024-05-09T13:45:45.467Z,1.20
2024-05-09T13:48:15.022Z,1.25
2024-05-09T13:50:44.515Z,1.15
2024-05-09T13:53:11.742Z,1.30
2024-05-09T13:55:41.427Z,1.10
2024-05-09T13:58:09.171Z,1.17
2024-05-09T14:00:46.216Z,1.10
2024-05-09T14:03:20.002Z,1.20
2024-05-09T14:08:19.955Z,1.20
2024-05-09T14:10:50.613Z,1.38
2024-05-09T14:13:17.787Z,1.02
2024-05-09T14:15:48.259Z,1.27
2024-05-09T14:18:18.014Z,1.17
2024-05-09T14:20:47.531Z,1.20
2024-05-09T14:23:14.409Z,1.30
2024-05-09T14:25:45.019Z,1.25
2024-05-09T14:28:13.488Z,1.48
2024-05-09T14:30:43.325Z,1.42
2024-05-09T14:33:11.094Z,1.30
2024-05-09T14:35:43.267Z,1.30
2024-05-09T14:38:10.605Z,1.00
2024-05-09T14:40:43.579Z,1.17
2024-05-09T14:43:12.221Z,1.40
2024-05-09T14:45:42.491Z,1.02
2024-05-09T14:48:10.261Z,1.17
2024-05-09T14:50:41.020Z,1.90
2024-05-09T14:53:12.188Z,1.30
2024-05-09T14:55:43.547Z,1.80
2024-05-09T14:58:11.664Z,1.60
2024-05-09T15:00:47.711Z,1.40
2024-05-09T15:03:17.760Z,1.60
2024-05-09T15:05:47.773Z,1.40
2024-05-09T15:08:17.982Z,1.50
2024-05-09T15:10:49.624Z,1.40
2024-05-09T15:15:47.100Z,1.63
2024-05-09T15:18:14.244Z,1.30
2024-05-09T15:20:44.521Z,1.55
2024-05-09T15:23:11.694Z,1.33
2024-05-09T15:25:44.561Z,1.10
2024-05-09T15:28:11.403Z,1.63
2024-05-09T15:30:42.946Z,1.23
2024-05-09T15:33:12.358Z,1.25
2024-05-09T15:35:42.469Z,1.30
2024-05-09T15:38:10.197Z,1.13
2024-05-09T15:40:40.920Z,1.33
2024-05-09T15:43:11.672Z,1.20
2024-05-09T15:45:41.894Z,1.80
2024-05-09T15:48:10.557Z,1.10
2024-05-09T15:50:42.487Z,1.33
2024-05-09T15:55:41.204Z,1.80
2024-05-09T15:58:11.214Z,1.35
2024-05-09T16:00:43.406Z,1.10
2024-05-09T16:03:13.979Z,1.25
2024-05-09T16:05:47.587Z,1.40
2024-05-09T16:08:15.573Z,1.38
2024-05-09T16:10:46.451Z,1.35
2024-05-09T16:13:17.425Z,1.27
2024-05-09T16:15:47.589Z,1.17
2024-05-09T16:18:14.801Z,3.15
2024-05-09T16:20:46.351Z,1.17
2024-05-09T16:23:15.257Z,1.40
2024-05-09T16:25:47.515Z,1.00
2024-05-09T16:28:18.950Z,1.10
2024-05-09T16:30:48.536Z,1.27
2024-05-09T16:33:15.480Z,1.20
2024-05-09T16:35:44.880Z,1.10
2024-05-09T16:38:12.494Z,1.60
2024-05-09T16:40:42.005Z,1.17
2024-05-09T16:43:10.024Z,1.48
2024-05-09T16:45:43.946Z,1.70
2024-05-09T16:48:11.464Z,1.10
2024-05-09T16:50:40.980Z,1.33
2024-05-09T16:53:08.406Z,1.05
2024-05-09T16:55:38.498Z,1.10
2024-05-09T16:58:07.997Z,1.08
2024-05-09T17:00:42.103Z,1.35
2024-05-09T17:03:15.127Z,1.20
2024-05-09T17:05:46.866Z,1.05
2024-05-09T17:08:15.769Z,1.67
2024-05-09T17:10:45.406Z,1.50
2024-05-09T17:13:15.141Z,1.10
2024-05-09T17:15:44.743Z,1.30
2024-05-09T17:18:17.224Z,1.17
2024-05-09T17:20:44.013Z,1.00
2024-05-09T17:23:14.975Z,1.15
2024-05-09T17:25:42.970Z,0.90
2024-05-09T17:28:12.941Z,1.13
2024-05-09T17:30:41.833Z,1.25
2024-05-09T17:33:13.425Z,1.45
2024-05-09T17:35:45.903Z,1.92
2024-05-09T17:38:15.714Z,1.15
2024-05-09T17:40:42.604Z,2.22
2024-05-09T17:43:12.817Z,1.10
2024-05-09T17:45:41.298Z,1.70
2024-05-09T17:48:12.474Z,1.38
2024-05-09T17:50:40.092Z,1.15
2024-05-09T17:53:14.457Z,1.40
2024-05-09T17:55:41.438Z,1.30
2024-05-09T17:58:11.344Z,7.15
2024-05-09T18:00:41.286Z,2.10
2024-05-09T18:03:14.161Z,2.10
2024-05-09T18:05:42.707Z,1.98
2024-05-09T18:08:15.770Z,1.52
2024-05-09T18:10:42.939Z,1.50
2024-05-09T18:13:13.481Z,1.90
2024-05-09T18:15:41.804Z,2.00
2024-05-09T18:18:11.763Z,1.73
2024-05-09T18:20:43.811Z,1.58
2024-05-09T18:23:19.430Z,2.15
2024-05-09T18:25:46.986Z,2.00
2024-05-09T18:28:17.759Z,2.35
2024-05-09T18:30:44.993Z,2.50
2024-05-09T18:33:14.935Z,3.05
2024-05-09T18:35:43.389Z,2.80
2024-05-09T18:38:13.346Z,2.00
2024-05-09T18:40:44.730Z,2.30
2024-05-09T18:43:16.684Z,2.17
2024-05-09T18:45:44.443Z,1.60
2024-05-09T18:48:14.367Z,1.88
2024-05-09T18:50:41.829Z,1.60
2024-05-09T18:53:13.456Z,1.40
2024-05-09T18:55:43.460Z,1.70
2024-05-09T18:58:17.007Z,1.50
2024-05-09T19:00:46.628Z,1.60
2024-05-09T19:03:18.871Z,1.40
2024-05-09T19:05:46.589Z,1.65
2024-05-09T19:08:16.992Z,1.40
2024-05-09T19:10:46.767Z,1.40
2024-05-09T19:13:16.705Z,1.73
2024-05-09T19:15:44.138Z,1.77
2024-05-09T19:18:15.501Z,1.50
2024-05-09T19:20:42.993Z,1.40
2024-05-09T19:23:12.859Z,1.95
2024-05-09T19:25:39.834Z,1.48
2024-05-09T19:28:12.027Z,1.50
2024-05-09T19:30:41.904Z,1.60
2024-05-09T19:33:13.932Z,1.52
2024-05-09T19:35:41.616Z,1.40
2024-05-09T19:38:11.676Z,1.80
2024-05-09T19:40:38.529Z,2.22
2024-05-09T19:43:08.029Z,1.20
2024-05-09T19:45:37.486Z,1.55
2024-05-09T19:48:09.543Z,1.48
2024-05-09T19:50:42.180Z,1.20
2024-05-09T19:53:14.017Z,1.70
2024-05-09T19:55:41.754Z,1.50
2024-05-09T19:58:12.870Z,1.70
2024-05-09T20:00:44.100Z,1.58
2024-05-09T20:03:16.128Z,1.77
2024-05-09T20:05:45.377Z,1.70
2024-05-09T20:08:15.627Z,2.10
2024-05-09T20:10:42.687Z,1.50
2024-05-09T20:13:12.204Z,1.25
2024-05-09T20:15:39.737Z,1.75
2024-05-09T20:18:12.173Z,1.70
2024-05-09T20:20:42.394Z,1.58
2024-05-09T20:23:13.609Z,1.80
2024-05-09T20:25:40.581Z,1.90
2024-05-09T20:28:10.575Z,1.90
2024-05-09T20:30:37.725Z,4.10
2024-05-09T20:33:09.456Z,2.90
2024-05-09T20:35:39.551Z,2.05
2024-05-09T20:38:09.306Z,1.77
2024-05-09T20:40:38.732Z,2.00
2024-05-09T20:43:10.780Z,1.70
2024-05-09T20:45:38.277Z,1.58
2024-05-09T20:48:09.758Z,1.80
2024-05-09T20:50:42.820Z,1.80
2024-05-09T20:53:11.473Z,1.65
2024-05-09T20:55:41.306Z,1.80
2024-05-09T20:58:08.474Z,1.75
2024-05-09T21:00:42.050Z,1.70
2024-05-09T21:03:12.739Z,2.00
2024-05-09T21:05:45.353Z,1.88
2024-05-09T21:08:12.388Z,1.92
2024-05-09T21:10:41.931Z,1.90
2024-05-09T21:13:08.867Z,2.08
2024-05-09T21:15:38.459Z,2.63
2024-05-09T21:18:05.876Z,2.00
2024-05-09T21:20:35.515Z,1.85
2024-05-09T21:23:05.301Z,2.15
2024-05-09T21:25:34.847Z,2.03
2024-05-09T21:28:01.899Z,1.90
2024-05-09T21:30:40.210Z,2.20
2024-05-09T21:33:11.456Z,1.95
2024-05-09T21:35:43.271Z,2.53
2024-05-09T21:38:14.498Z,2.28
2024-05-09T21:40:44.914Z,2.30
2024-05-09T21:43:12.168Z,2.17
2024-05-09T21:45:41.594Z,2.20
2024-05-09T21:48:09.006Z,2.17
2024-05-09T21:50:41.203Z,2.25
2024-05-09T21:53:12.832Z,2.28
2024-05-09T21:55:43.074Z,2.30
2024-05-09T21:58:10.537Z,2.38
2024-05-09T22:00:42.791Z,2.55
2024-05-09T22:03:11.349Z,2.60
2024-05-09T22:05:44.135Z,2.50
2024-05-09T22:08:13.910Z,2.10
2024-05-09T22:10:43.582Z,2.25
2024-05-09T22:13:10.668Z,2.67
2024-05-09T22:15:41.255Z,2.17
2024-05-09T22:18:09.968Z,2.70
2024-05-09T22:20:44.210Z,2.28
2024-05-09T22:23:15.305Z,2.85
2024-05-09T22:25:44.833Z,2.70
2024-05-09T22:28:14.427Z,2.45
2024-05-09T22:30:45.978Z,2.72
2024-05-09T22:33:13.322Z,2.65
2024-05-09T22:35:42.953Z,2.60
2024-05-09T22:38:09.849Z,2.92
2024-05-09T22:40:47.707Z,2.88
2024-05-09T22:43:18.451Z,2.80
2024-05-09T22:45:48.898Z,2.97
2024-05-09T22:48:15.859Z,2.40
2024-05-09T22:50:45.410Z,2.65
2024-05-09T22:53:12.200Z,2.80
2024-05-09T22:55:44.338Z,2.53
2024-05-09T22:58:11.172Z,3.17
2024-05-09T23:00:40.956Z,2.92
2024-05-09T23:03:08.089Z,3.03
2024-05-09T23:05:37.775Z,3.28
2024-05-09T23:08:05.198Z,2.63
2024-05-09T23:10:37.627Z,3.10
2024-05-09T23:13:10.884Z,2.78
2024-05-09T23:15:37.994Z,3.00
2024-05-09T23:18:08.631Z,2.83
2024-05-09T23:20:39.200Z,2.53
2024-05-09T23:23:11.383Z,2.47
2024-05-09T23:25:38.967Z,2.80
2024-05-09T23:28:11.300Z,2.70
2024-05-09T23:30:40.796Z,2.50
2024-05-09T23:33:12.862Z,3.53
2024-05-09T23:35:41.788Z,2.78
2024-05-09T23:38:11.417Z,2.70
2024-05-09T23:40:40.740Z,2.72
2024-05-09T23:43:14.424Z,3.35
2024-05-09T23:45:42.157Z,2.80
2024-05-09T23:48:12.798Z,2.65
2024-05-09T23:50:40.662Z,3.03
2024-05-09T23:53:11.282Z,2.70
2024-05-09T23:55:38.814Z,2.67
2024-05-09T23:58:09.046Z,3.10
